createdAt,value
2018-02-14T00:02:20.407Z,98555.69
2018-02-14T00:04:48.690Z,98554.77
2018-02-14T00:07:17.674Z,98557.48
2018-02-14T00:09:45.976Z,98555.08
2018-02-14T00:12:14.259Z,98560.86
2018-02-14T00:14:42.531Z,98560.39
2018-02-14T00:17:11.035Z,98555.57
2018-02-14T00:19:39.289Z,98560.95
2018-02-14T00:22:07.579Z,98561.70
2018-02-14T00:24:35.872Z,98566.42
2018-02-14T00:27:04.624Z,98556.66
2018-02-14T00:29:32.915Z,98561.42
2018-02-14T00:32:01.199Z,98567.73
2018-02-14T00:34:29.488Z,98568.03
2018-02-14T00:36:57.757Z,98568.30
2018-02-14T00:39:26.062Z,98567.72
2018-02-14T00:41:54.412Z,98571.13
2018-02-14T00:44:22.689Z,98571.36
2018-02-14T00:46:50.982Z,98577.56
2018-02-14T00:49:19.239Z,98577.27
2018-02-14T00:51:47.538Z,98579.86
2018-02-14T00:54:16.639Z,98582.44
2018-02-14T00:56:45.464Z,98580.54
2018-02-14T00:59:13.733Z,98590.74
2018-02-14T01:01:42.082Z,98581.56
2018-02-14T01:04:10.348Z,98583.85
2018-02-14T01:06:38.608Z,98581.47
2018-02-14T01:09:06.915Z,98581.66
2018-02-14T01:11:35.255Z,98585.94
2018-02-14T01:14:03.547Z,98591.52
2018-02-14T01:16:31.861Z,98593.63
2018-02-14T01:19:05.822Z,98598.51
2018-02-14T01:21:34.131Z,98594.52
2018-02-14T01:24:02.397Z,98592.72
2018-02-14T01:26:30.679Z,98595.61
2018-02-14T01:28:58.936Z,98603.31
2018-02-14T01:31:27.239Z,98597.30
2018-02-14T01:33:55.502Z,98596.42
2018-02-14T01:36:23.838Z,98599.10
2018-02-14T01:38:52.105Z,98609.98
2018-02-14T01:41:20.434Z,98603.29
2018-02-14T01:43:48.702Z,98607.28
2018-02-14T01:46:16.971Z,98611.98
2018-02-14T01:48:45.266Z,98611.20
2018-02-14T01:51:13.525Z,98605.98
2018-02-14T01:53:41.817Z,98606.91
2018-02-14T01:56:10.084Z,98614.48
2018-02-14T01:58:38.380Z,98611.97
2018-02-14T02:01:06.642Z,98605.87
2018-02-14T02:03:35.368Z,98606.91
2018-02-14T02:06:03.647Z,98606.60
2018-02-14T02:08:31.938Z,98584.23
2018-02-14T02:11:00.637Z,98610.97
2018-02-14T02:13:28.908Z,98611.88
2018-02-14T02:15:57.187Z,98610.47
2018-02-14T02:18:25.469Z,98613.25
2018-02-14T02:20:53.759Z,98614.48
2018-02-14T02:23:22.107Z,98613.17
2018-02-14T02:25:50.412Z,98614.84
2018-02-14T02:28:18.677Z,98617.16
2018-02-14T02:30:46.958Z,98616.23
2018-02-14T02:33:15.265Z,98616.00
2018-02-14T02:35:43.536Z,98620.53
2018-02-14T02:38:11.839Z,98618.83
2018-02-14T02:40:42.036Z,98615.27
2018-02-14T02:43:10.364Z,98621.36
2018-02-14T02:45:38.652Z,98627.66
2018-02-14T02:48:06.937Z,98623.48
2018-02-14T02:50:35.203Z,98620.81
2018-02-14T02:53:03.495Z,98623.34
2018-02-14T02:55:31.766Z,98629.30
2018-02-14T02:58:00.052Z,98627.80
2018-02-14T03:00:28.314Z,98633.90
2018-02-14T03:02:56.657Z,98637.67
2018-02-14T03:05:24.924Z,98635.98
2018-02-14T03:07:53.266Z,98646.36
2018-02-14T03:10:21.609Z,98629.28
2018-02-14T03:12:49.883Z,98644.77
2018-02-14T03:15:18.210Z,98645.42
2018-02-14T03:17:46.516Z,98647.57
2018-02-14T03:20:14.816Z,98640.29
2018-02-14T03:22:43.086Z,98641.45
2018-02-14T03:25:11.394Z,98635.55
2018-02-14T03:27:39.687Z,98637.02
2018-02-14T03:30:07.993Z,98640.19
2018-02-14T03:32:36.261Z,98642.41
2018-02-14T03:35:05.582Z,98641.61
2018-02-14T03:37:33.907Z,98650.71
2018-02-14T03:40:02.171Z,98648.48
2018-02-14T03:42:30.443Z,98646.09
2018-02-14T03:44:58.709Z,98645.85
2018-02-14T03:47:27.046Z,98657.94
2018-02-14T03:49:55.365Z,98655.31
2018-02-14T03:52:23.647Z,98661.40
2018-02-14T03:54:51.946Z,98669.42
2018-02-14T03:57:20.249Z,98669.42
2018-02-14T03:59:48.532Z,98683.25
2018-02-14T04:02:16.812Z,98683.98
2018-02-14T04:04:45.111Z,98660.36
2018-02-14T04:07:13.377Z,98691.91
2018-02-14T04:09:41.674Z,98700.91
2018-02-14T04:12:09.950Z,98700.98
2018-02-14T04:14:38.277Z,98713.02
2018-02-14T04:17:06.544Z,98714.89
2018-02-14T04:19:34.851Z,98693.75
2018-02-14T04:22:03.182Z,98719.50
2018-02-14T04:24:31.491Z,98717.08
2018-02-14T04:26:59.819Z,98720.11
2018-02-14T04:29:28.094Z,98715.79
2018-02-14T04:31:56.389Z,98722.86
2018-02-14T04:34:24.664Z,98721.25
2018-02-14T04:36:53.018Z,98718.49
2018-02-14T04:39:21.346Z,98727.59
2018-02-14T04:41:49.660Z,98728.34
2018-02-14T04:44:17.955Z,98733.78
2018-02-14T04:46:46.231Z,98732.41
2018-02-14T04:49:14.514Z,98735.44
2018-02-14T04:51:42.804Z,98749.17
2018-02-14T04:54:11.105Z,98753.00
2018-02-14T04:56:39.375Z,98755.84
2018-02-14T04:59:08.064Z,98756.98
2018-02-14T05:01:36.366Z,98759.88
2018-02-14T05:04:05.284Z,98764.81
2018-02-14T05:06:33.642Z,98772.47
2018-02-14T05:09:01.920Z,98778.42
2018-02-14T05:11:30.269Z,98773.24
2018-02-14T05:13:58.548Z,98781.25
2018-02-14T05:16:26.874Z,98783.72
2018-02-14T05:18:55.167Z,98786.11
2018-02-14T05:21:23.501Z,98788.79
2018-02-14T05:23:51.804Z,98794.13
2018-02-14T05:26:20.084Z,98791.66
2018-02-14T05:28:48.648Z,98807.73
2018-02-14T05:31:16.944Z,98808.70
2018-02-14T05:33:45.235Z,98803.36
2018-02-14T05:36:13.544Z,98813.31
2018-02-14T05:38:41.844Z,98816.67
2018-02-14T05:41:10.141Z,98816.88
2018-02-14T05:43:38.435Z,98821.23
2018-02-14T05:46:06.708Z,98826.45
2018-02-14T05:48:35.015Z,98825.13
2018-02-14T05:51:03.279Z,98824.09
2018-02-14T05:53:31.632Z,98832.02
2018-02-14T05:55:59.923Z,98838.97
2018-02-14T05:58:28.204Z,98840.25
2018-02-14T06:00:56.555Z,98824.88
2018-02-14T06:03:24.829Z,98844.20
2018-02-14T06:05:53.166Z,98847.06
2018-02-14T06:08:21.401Z,98841.38
2018-02-14T06:10:50.396Z,98859.08
2018-02-14T06:13:18.659Z,98860.16
2018-02-14T06:15:46.954Z,98868.07
2018-02-14T06:18:15.228Z,98873.53
2018-02-14T06:20:43.556Z,98872.36
2018-02-14T06:23:11.815Z,98880.30
2018-02-14T06:25:40.091Z,98881.70
2018-02-14T06:28:08.414Z,98876.42
2018-02-14T06:30:36.678Z,98876.50
2018-02-14T06:33:04.974Z,98882.52
2018-02-14T06:35:33.310Z,98883.98
2018-02-14T06:38:01.572Z,98889.84
2018-02-14T06:40:29.903Z,98884.52
2018-02-14T06:42:58.227Z,98875.38
2018-02-14T06:45:26.997Z,98879.13
2018-02-14T06:47:55.308Z,98883.59
2018-02-14T06:50:23.588Z,98882.27
2018-02-14T06:52:51.903Z,98886.84
2018-02-14T06:55:20.249Z,98888.61
2018-02-14T06:57:48.523Z,98893.59
2018-02-14T07:00:16.842Z,98895.59
2018-02-14T07:02:45.115Z,98895.08
2018-02-14T07:05:13.404Z,98894.13
2018-02-14T07:07:41.760Z,98895.06
2018-02-14T07:10:10.057Z,98900.25
2018-02-14T07:12:38.320Z,98904.75
2018-02-14T07:15:06.690Z,98902.58
2018-02-14T07:17:34.932Z,98900.30
2018-02-14T07:20:03.279Z,98911.78
2018-02-14T07:22:31.539Z,98913.45
2018-02-14T07:25:00.732Z,98913.08
2018-02-14T07:27:29.039Z,98902.09
2018-02-14T07:29:57.322Z,98921.13
2018-02-14T07:32:25.637Z,98915.67
2018-02-14T07:34:53.905Z,98919.89
2018-02-14T07:37:22.205Z,98918.87
2018-02-14T07:39:50.495Z,98923.78
2018-02-14T07:42:18.822Z,98921.25
2018-02-14T07:44:47.111Z,98922.78
2018-02-14T07:47:15.405Z,98919.55
2018-02-14T07:49:43.722Z,98923.03
2018-02-14T07:52:12.013Z,98927.88
2018-02-14T07:54:40.336Z,98928.78
2018-02-14T07:57:08.611Z,98920.52
2018-02-14T07:59:36.961Z,98941.09
2018-02-14T08:02:05.624Z,98945.83
2018-02-14T08:04:33.949Z,98945.23
2018-02-14T08:07:02.224Z,98952.99
2018-02-14T08:09:30.622Z,98951.52
2018-02-14T08:11:58.927Z,98954.88
2018-02-14T08:14:27.710Z,98953.48
2018-02-14T08:16:56.062Z,98955.75
2018-02-14T08:19:24.340Z,98958.50
2018-02-14T08:21:52.629Z,98964.41
2018-02-14T08:24:20.896Z,98968.41
2018-02-14T08:26:50.098Z,98974.52
2018-02-14T08:29:18.383Z,98973.15
2018-02-14T08:31:46.700Z,98974.45
2018-02-14T08:34:15.004Z,98966.38
2018-02-14T08:36:43.487Z,98968.77
2018-02-14T08:39:12.590Z,98976.70
2018-02-14T08:41:41.179Z,98976.19
2018-02-14T08:44:09.560Z,98976.41
2018-02-14T08:46:37.894Z,98975.89
2018-02-14T08:49:06.193Z,98980.91
2018-02-14T08:51:34.536Z,98986.47
2018-02-14T08:54:02.849Z,98988.28
2018-02-14T08:56:31.800Z,98994.37
2018-02-14T08:59:00.095Z,98994.46
2018-02-14T09:01:28.395Z,98993.15
2018-02-14T09:03:56.728Z,98990.19
2018-02-14T09:06:25.105Z,98990.80
2018-02-14T09:08:53.384Z,98990.96
2018-02-14T09:11:21.750Z,98994.18
2018-02-14T09:13:49.991Z,98993.59
2018-02-14T09:16:18.337Z,98995.89
2018-02-14T09:18:47.484Z,98974.84
2018-02-14T09:21:15.805Z,98991.95
2018-02-14T09:23:44.080Z,98989.56
2018-02-14T09:26:12.403Z,98989.38
2018-02-14T09:28:40.684Z,98992.89
2018-02-14T09:31:09.053Z,98987.27
2018-02-14T09:33:37.339Z,99002.16
2018-02-14T09:36:05.667Z,99002.29
2018-02-14T09:38:33.984Z,99015.10
2018-02-14T09:41:02.257Z,99005.25
2018-02-14T09:43:30.542Z,99014.21
2018-02-14T09:45:58.819Z,99012.33
2018-02-14T09:48:27.191Z,99022.31
2018-02-14T09:50:55.457Z,99031.30
2018-02-14T09:53:23.762Z,99036.52
2018-02-14T09:55:52.112Z,99033.23
2018-02-14T09:58:20.472Z,99030.76
2018-02-14T10:00:48.776Z,99044.22
2018-02-14T10:03:17.099Z,99043.48
2018-02-14T10:05:45.435Z,99046.48
2018-02-14T10:08:13.732Z,99043.26
2018-02-14T10:10:42.039Z,99040.22
2018-02-14T10:13:10.394Z,99045.14
2018-02-14T10:15:39.745Z,99037.92
2018-02-14T10:18:08.052Z,99032.48
2018-02-14T10:20:36.323Z,99034.48
2018-02-14T10:23:05.624Z,99024.27
2018-02-14T10:25:33.944Z,99031.81
2018-02-14T10:28:02.871Z,99035.26
2018-02-14T10:30:31.159Z,99029.68
2018-02-14T10:32:59.470Z,99031.91
2018-02-14T10:35:27.730Z,99036.41
2018-02-14T10:37:56.389Z,99040.56
2018-02-14T10:40:25.991Z,99042.78
2018-02-14T10:42:55.598Z,99034.66
2018-02-14T10:45:23.939Z,99030.91
2018-02-14T10:47:52.227Z,99021.98
2018-02-14T10:50:20.539Z,99025.02
2018-02-14T10:52:48.836Z,99025.34
2018-02-14T10:55:17.155Z,99026.09
2018-02-14T10:57:45.491Z,98998.45
2018-02-14T11:03:24.834Z,99016.19
2018-02-14T11:05:58.863Z,99018.10
2018-02-14T11:08:27.106Z,99017.16
2018-02-14T11:10:55.426Z,99010.44
2018-02-14T11:13:23.718Z,99011.86
2018-02-14T11:15:52.018Z,99010.55
2018-02-14T11:18:20.324Z,99002.96
2018-02-14T11:20:49.402Z,99005.01
2018-02-14T11:23:17.716Z,99019.11
2018-02-14T11:25:46.054Z,99013.27
2018-02-14T11:28:14.337Z,99011.95
2018-02-14T11:30:42.620Z,99006.95
2018-02-14T11:33:10.992Z,99001.08
2018-02-14T11:35:39.276Z,99006.82
2018-02-14T11:38:07.574Z,98993.45
2018-02-14T11:40:35.856Z,98989.93
2018-02-14T11:43:04.248Z,98972.21
2018-02-14T11:45:32.585Z,98984.98
2018-02-14T11:48:00.955Z,98986.30
2018-02-14T11:50:36.071Z,98975.44
2018-02-14T11:53:06.120Z,98986.58
2018-02-14T11:55:34.493Z,98985.93
2018-02-14T11:58:02.771Z,98987.83
2018-02-14T12:00:31.045Z,98986.07
2018-02-14T12:02:59.979Z,98978.13
2018-02-14T12:05:28.419Z,98980.75
2018-02-14T12:07:57.372Z,98977.92
2018-02-14T12:10:25.688Z,98981.44
2018-02-14T12:12:53.968Z,98981.67
2018-02-14T12:15:22.340Z,98963.23
2018-02-14T12:17:50.711Z,98980.37
2018-02-14T12:20:19.084Z,98980.52
2018-02-14T12:22:47.345Z,98982.47
2018-02-14T12:25:15.650Z,98978.77
2018-02-14T12:27:43.920Z,98978.03
2018-02-14T12:30:12.921Z,98969.11
2018-02-14T12:32:41.307Z,98970.31
2018-02-14T12:35:10.223Z,98968.18
2018-02-14T12:37:38.552Z,98970.89
2018-02-14T12:40:06.806Z,98964.79
2018-02-14T12:42:35.116Z,98965.37
2018-02-14T12:45:04.515Z,98956.92
2018-02-14T12:47:32.791Z,98972.58
2018-02-14T12:50:01.225Z,98938.52
2018-02-14T12:52:29.503Z,98968.70
2018-02-14T12:54:57.846Z,98967.96
2018-02-14T12:57:26.202Z,98968.59
2018-02-14T12:59:54.918Z,98965.95
2018-02-14T13:02:23.237Z,98963.81
2018-02-14T13:04:51.509Z,98976.20
2018-02-14T13:07:19.868Z,98973.48
2018-02-14T13:09:48.191Z,98972.84
2018-02-14T13:12:16.683Z,98965.04
2018-02-14T13:14:44.984Z,98972.68
2018-02-14T13:17:13.239Z,98960.39
2018-02-14T13:19:41.571Z,98961.88
2018-02-14T13:22:09.856Z,98963.72
2018-02-14T13:24:38.284Z,98964.13
2018-02-14T13:27:06.571Z,98958.55
2018-02-14T13:29:34.821Z,98959.11
2018-02-14T13:32:03.574Z,98950.77
2018-02-14T13:34:31.868Z,98951.98
2018-02-14T13:37:00.173Z,98954.06
2018-02-14T13:39:28.542Z,98953.64
2018-02-14T13:41:57.882Z,98949.20
2018-02-14T13:44:26.192Z,98948.20
2018-02-14T13:46:54.516Z,98948.87
2018-02-14T13:49:22.738Z,98947.75
2018-02-14T13:51:51.044Z,98943.44
2018-02-14T13:54:19.362Z,98937.05
2018-02-14T13:56:48.620Z,98933.84
2018-02-14T13:59:16.907Z,98940.38
2018-02-14T14:01:45.199Z,98938.81
2018-02-14T14:04:13.668Z,98932.73
2018-02-14T14:06:41.932Z,98939.05
2018-02-14T14:09:10.231Z,98938.85
2018-02-14T14:11:38.544Z,98937.33
2018-02-14T14:14:06.866Z,98944.23
2018-02-14T14:16:35.141Z,98948.73
2018-02-14T14:19:03.494Z,98956.42
2018-02-14T14:21:31.751Z,98956.84
2018-02-14T14:24:00.080Z,98960.52
2018-02-14T14:26:28.473Z,98962.62
2018-02-14T14:28:56.753Z,98961.58
2018-02-14T14:31:25.127Z,98958.13
2018-02-14T14:33:53.376Z,98964.27
2018-02-14T14:36:21.679Z,98957.79
2018-02-14T14:38:49.944Z,98958.29
2018-02-14T14:41:18.589Z,98958.31
2018-02-14T14:43:47.103Z,98961.33
2018-02-14T14:46:15.428Z,98961.25
2018-02-14T14:48:43.683Z,98953.43
2018-02-14T14:51:12.881Z,98965.23
2018-02-14T14:53:41.184Z,98966.33
2018-02-14T14:56:09.497Z,98975.28
2018-02-14T14:58:37.789Z,98969.95
2018-02-14T15:01:06.121Z,98964.77
2018-02-14T15:03:34.429Z,98963.47
2018-02-14T15:06:02.768Z,98966.17
2018-02-14T15:08:31.021Z,98974.88
2018-02-14T15:10:59.349Z,98982.00
2018-02-14T15:13:27.677Z,98981.84
2018-02-14T15:15:55.931Z,98977.04
2018-02-14T15:18:24.206Z,98972.80
2018-02-14T15:20:53.973Z,98957.94
2018-02-14T15:23:22.306Z,98970.33
2018-02-14T15:25:50.639Z,98969.24
2018-02-14T15:28:18.893Z,98975.70
2018-02-14T15:30:47.229Z,98958.89
2018-02-14T15:33:15.582Z,98973.05
2018-02-14T15:35:43.864Z,98979.03
2018-02-14T15:38:12.547Z,98980.41
2018-02-14T15:40:41.265Z,98979.00
2018-02-14T15:43:09.625Z,98980.30
2018-02-14T15:45:37.913Z,98966.78
2018-02-14T15:48:06.268Z,98988.53
2018-02-14T15:53:09.143Z,98990.80
2018-02-14T15:55:37.472Z,98988.58
2018-02-14T15:58:05.842Z,98980.71
2018-02-14T16:00:34.156Z,98986.05
2018-02-14T16:03:02.802Z,98990.55
2018-02-14T16:05:31.217Z,98995.86
2018-02-14T16:07:59.690Z,98987.09
2018-02-14T16:10:30.030Z,98984.47
2018-02-14T16:12:58.358Z,98988.41
2018-02-14T16:15:26.778Z,98996.19
2018-02-14T16:17:55.946Z,98992.29
2018-02-14T16:20:24.301Z,99007.18
2018-02-14T16:22:52.765Z,99000.55
2018-02-14T16:25:21.123Z,99005.95
2018-02-14T16:27:50.388Z,98999.51
2018-02-14T16:30:18.734Z,99013.94
2018-02-14T16:32:47.968Z,99011.47
2018-02-14T16:35:16.285Z,99015.05
2018-02-14T16:37:44.603Z,99019.01
2018-02-14T16:40:12.916Z,99019.22
2018-02-14T16:42:41.289Z,99009.16
2018-02-14T16:45:10.168Z,99006.67
2018-02-14T16:47:38.513Z,99012.02
2018-02-14T16:50:06.792Z,98997.10
2018-02-14T16:52:35.094Z,99010.59
2018-02-14T16:55:03.810Z,99010.14
2018-02-14T16:57:32.408Z,99008.15
2018-02-14T17:00:00.762Z,99002.89
2018-02-14T17:02:29.092Z,99008.16
2018-02-14T17:04:57.490Z,99008.27
2018-02-14T17:07:25.794Z,99016.98
2018-02-14T17:09:54.947Z,99019.47
2018-02-14T17:12:25.211Z,99023.05
2018-02-14T17:14:53.572Z,99011.69
2018-02-14T17:17:21.940Z,99023.41
2018-02-14T17:19:50.264Z,99008.64
2018-02-14T17:22:18.597Z,99033.77
2018-02-14T17:24:46.981Z,99034.84
2018-02-14T17:27:15.364Z,99040.48
2018-02-14T17:29:43.669Z,99037.82
2018-02-14T17:32:12.954Z,99042.79
2018-02-14T17:34:42.282Z,99050.71
2018-02-14T17:37:10.589Z,99055.58
2018-02-14T17:39:38.933Z,99059.52
2018-02-14T17:42:07.374Z,99071.22
2018-02-14T17:44:36.260Z,99075.73
2018-02-14T17:47:04.619Z,99073.58
2018-02-14T17:49:33.975Z,99066.88
2018-02-14T17:52:02.333Z,99064.17
2018-02-14T17:54:31.503Z,99064.59
2018-02-14T17:56:59.930Z,99063.34
2018-02-14T17:59:28.262Z,99046.52
2018-02-14T18:01:56.669Z,99058.55
2018-02-14T18:04:25.048Z,99059.53
2018-02-14T18:06:54.198Z,99059.81
2018-02-14T18:09:23.109Z,99057.89
2018-02-14T18:11:51.934Z,99060.45
2018-02-14T18:14:21.810Z,99062.56
2018-02-14T18:16:50.586Z,99068.23
2018-02-14T18:19:22.566Z,99063.48
2018-02-14T18:21:51.076Z,99063.05
2018-02-14T18:24:21.050Z,99063.72
2018-02-14T18:26:51.419Z,99059.12
2018-02-14T18:29:20.898Z,99034.95
2018-02-14T18:31:50.717Z,99044.84
2018-02-14T18:34:19.156Z,99033.80
2018-02-14T18:36:47.889Z,99017.77
2018-02-14T18:39:17.166Z,99035.48
2018-02-14T18:41:46.790Z,99034.37
2018-02-14T18:44:16.575Z,99033.02
2018-02-14T18:46:45.718Z,99039.91
2018-02-14T18:49:14.778Z,99037.84
2018-02-14T18:51:44.885Z,99046.52
2018-02-14T18:54:18.199Z,99047.77
2018-02-14T18:56:47.406Z,99057.63
2018-02-14T18:59:16.186Z,99060.66
2018-02-14T19:01:46.882Z,99062.84
2018-02-14T19:04:15.985Z,99067.25
2018-02-14T19:06:44.282Z,99061.94
2018-02-14T19:09:12.646Z,99064.88
2018-02-14T19:11:41.880Z,99062.22
2018-02-14T19:14:10.872Z,99056.14
2018-02-14T19:16:39.225Z,99046.09
2018-02-14T19:19:09.144Z,99039.77
2018-02-14T19:21:38.153Z,99042.66
2018-02-14T19:24:06.555Z,99045.27
2018-02-14T19:26:37.792Z,99042.84
2018-02-14T19:29:07.478Z,99037.06
2018-02-14T19:31:36.682Z,99036.10
2018-02-14T19:34:08.040Z,99028.77
2018-02-14T19:36:36.941Z,99037.25
2018-02-14T19:39:06.846Z,99049.42
2018-02-14T19:41:38.057Z,99045.56
2018-02-14T19:44:07.258Z,99040.56
2018-02-14T19:46:39.243Z,99042.99
2018-02-14T19:49:08.519Z,99040.87
2018-02-14T19:51:37.748Z,99030.44
2018-02-14T19:54:08.025Z,99030.31
2018-02-14T19:56:37.454Z,99027.30
2018-02-14T19:59:06.722Z,99027.58
2018-02-14T20:01:37.406Z,99034.67
2018-02-14T20:04:07.605Z,99029.78
2018-02-14T20:06:35.911Z,99025.00
2018-02-14T20:09:04.735Z,99014.17
2018-02-14T20:11:33.604Z,99013.44
2018-02-14T20:14:01.879Z,99020.49
2018-02-14T20:16:30.189Z,99022.34
2018-02-14T20:18:58.497Z,99031.16
2018-02-14T20:21:26.891Z,99027.88
2018-02-14T20:23:55.139Z,99036.02
2018-02-14T20:26:23.513Z,98998.55
2018-02-14T20:28:51.765Z,99039.54
2018-02-14T20:31:20.069Z,99041.50
2018-02-14T20:33:48.339Z,99041.43
2018-02-14T20:36:16.640Z,99030.19
2018-02-14T20:38:44.912Z,99030.91
2018-02-14T20:41:13.266Z,99027.97
2018-02-14T20:43:41.531Z,99024.14
2018-02-14T20:46:10.668Z,99015.52
2018-02-14T20:48:38.959Z,99011.56
2018-02-14T20:51:07.595Z,99024.64
2018-02-14T20:53:36.812Z,99016.78
2018-02-14T20:56:05.332Z,99002.74
2018-02-14T20:58:33.668Z,99019.34
2018-02-14T21:01:01.958Z,99017.53
2018-02-14T21:03:30.254Z,99020.73
2018-02-14T21:05:58.520Z,99005.70
2018-02-14T21:08:26.836Z,99006.11
2018-02-14T21:10:55.138Z,98998.20
2018-02-14T21:13:23.472Z,98989.38
2018-02-14T21:15:51.744Z,98989.66
2018-02-14T21:18:19.999Z,98999.81
2018-02-14T21:20:48.312Z,99000.80
2018-02-14T21:23:16.572Z,98998.64
2018-02-14T21:25:44.896Z,98990.73
2018-02-14T21:28:13.163Z,98988.66
2018-02-14T21:30:41.459Z,98986.36
2018-02-14T21:33:09.753Z,98984.06
2018-02-14T21:35:38.007Z,98988.66
2018-02-14T21:38:06.399Z,98980.16
2018-02-14T21:40:34.678Z,98989.34
2018-02-14T21:43:02.991Z,98992.23
2018-02-14T21:45:31.605Z,98997.36
2018-02-14T21:47:59.908Z,99000.24
2018-02-14T21:50:28.333Z,99000.09
2018-02-14T21:52:56.592Z,98999.22
2018-02-14T21:55:24.955Z,98991.15
2018-02-14T21:57:53.217Z,98992.45
2018-02-14T22:00:21.533Z,98992.98
2018-02-14T22:02:49.846Z,98993.20
2018-02-14T22:05:18.148Z,98988.52
2018-02-14T22:07:46.525Z,98991.83
2018-02-14T22:10:14.805Z,98979.36
2018-02-14T22:12:43.430Z,98972.09
2018-02-14T22:15:11.709Z,98967.05
2018-02-14T22:17:40.004Z,98965.64
2018-02-14T22:20:08.286Z,98971.17
2018-02-14T22:22:36.595Z,98971.22
2018-02-14T22:25:04.875Z,98970.91
2018-02-14T22:27:34.479Z,98973.66
2018-02-14T22:30:02.861Z,98972.16
2018-02-14T22:32:31.573Z,98979.98
2018-02-14T22:34:59.958Z,98972.78
2018-02-14T22:37:28.225Z,98974.94
2018-02-14T22:39:56.511Z,98972.92
2018-02-14T22:42:24.833Z,98973.98
2018-02-14T22:44:53.100Z,98969.48
2018-02-14T22:47:21.372Z,98942.78
2018-02-14T22:49:49.690Z,98963.54
2018-02-14T22:52:17.974Z,98963.08
2018-02-14T22:54:46.617Z,98950.17
2018-02-14T22:57:14.901Z,98944.68
2018-02-14T22:59:43.200Z,98949.86
2018-02-14T23:02:11.492Z,98947.47
2018-02-14T23:04:39.786Z,98950.23
2018-02-14T23:07:08.133Z,98954.64
2018-02-14T23:09:36.408Z,98961.20
2018-02-14T23:12:05.080Z,98959.50
2018-02-14T23:14:34.354Z,98955.83
2018-02-14T23:17:02.684Z,98954.94
2018-02-14T23:19:31.487Z,98948.05
2018-02-14T23:21:59.789Z,98941.20
2018-02-14T23:24:28.109Z,98936.70
2018-02-14T23:26:56.389Z,98934.41
2018-02-14T23:29:24.694Z,98934.50
2018-02-14T23:31:52.996Z,98925.75
2018-02-14T23:34:21.317Z,98921.25
2018-02-14T23:36:49.678Z,98916.45
2018-02-14T23:39:17.950Z,98904.77
2018-02-14T23:41:46.283Z,98905.13
2018-02-14T23:44:15.020Z,98904.05
2018-02-14T23:46:43.318Z,98910.75
2018-02-14T23:49:11.606Z,98906.48
2018-02-14T23:51:39.897Z,98916.10
2018-02-14T23:54:08.184Z,98913.91
2018-02-14T23:56:36.537Z,98921.72
2018-02-14T23:59:05.409Z,98913.31
